Nagaleader — VRDD5 — position and weather

sailwx.info

Track history (hours):
 
Tides and Currents Weather Stations Pressure Air Temp Water Temp Dewpoint Dewpoint Depression Visibility Wind Speed Wind Dir Waves Ship Positions

Nagaleader

Last reported at 2015-Mar-31 00:33 UTC. Time now 2015-Mar-31 02:07 UTC.
Position N 22°53' E 120°04'.

Length 113 m; draft 5.9 m.

Type: Cargo ship. MMSI: 477926700.

Date/timePositionNaut miles runAvg speedWind from/ knotsBaromVisibWave heightAir tempDewpointWater temp
2015-Mar-31 00:33N 22°53' E 120°04'1414.1
2015-Mar-30 23:33N 22°40' E 120°10'1110.6
2015-Mar-30 22:32N 22°33' E 120°19'0 0.5
2015-Mar-30 21:32N 22°34' E 120°19'0 0.0
2015-Mar-30 20:32N 22°34' E 120°19'0 0.0
2015-Mar-30 19:32N 22°34' E 120°19'0 0.0
2015-Mar-30 18:32N 22°34' E 120°19'0 0.0
2015-Mar-30 17:26N 22°34' E 120°19'0 0.0
2015-Mar-30 16:32N 22°34' E 120°19'0 0.0
2015-Mar-30 15:32N 22°34' E 120°19'1 1.1
2015-Mar-30 14:33N 22°33' E 120°20'0 0.1
2015-Mar-30 13:27N 22°33' E 120°20'0 0.0
2015-Mar-30 12:33N 22°33' E 120°20'0 0.0
2015-Mar-30 11:33N 22°33' E 120°20'0 0.0
2015-Mar-30 10:33N 22°33' E 120°20'0 0.0
2015-Mar-30 08:33N 22°33' E 120°20'0 0.0
2015-Mar-30 06:25N 22°33' E 120°20'4 4.9
2015-Mar-30 05:34N 22°32' E 120°15'4 3.7
2015-Mar-30 04:33N 22°31' E 120°12'0 0.2
2015-Mar-30 03:34N 22°31' E 120°11'3 3.2
2015-Mar-30 02:34N 22°34' E 120°10'1211.9
2015-Mar-30 01:34N 22°45' E 120°07'8810.9
2015-Mar-29 17:28N 24°12' E 119°56'7412.2
2015-Mar-29 11:25N 25°26' E 119°59'2512.2
2015-Mar-29 09:23N 25°50' E 119°53'1512.0
2015-Mar-29 08:06N 26°05' E 119°48'15 9.5
2015-Mar-29 06:33N 26°04' E 119°31'5 4.6
2015-Mar-29 05:30N 26°00' E 119°29'0 0.0
2015-Mar-29 04:30N 26°00' E 119°29'0 0.0
2015-Mar-29 03:30N 26°00' E 119°29'0 0.0
2015-Mar-29 02:30N 26°00' E 119°29'0 0.0
2015-Mar-29 01:30N 26°00' E 119°29'0 0.0
2015-Mar-29 00:30N 26°00' E 119°29'0 0.0
2015-Mar-28 23:30N 26°00' E 119°29'0 0.0
2015-Mar-28 22:30N 26°00' E 119°29'0 0.0
2015-Mar-28 21:30N 26°00' E 119°29'0 0.0
2015-Mar-28 20:30N 26°00' E 119°29'0 0.0
2015-Mar-28 19:24N 26°00' E 119°29'0 0.0
2015-Mar-28 18:30N 26°00' E 119°29'0 0.0
2015-Mar-28 17:30N 26°00' E 119°29'0 0.0
2015-Mar-28 16:30N 26°00' E 119°29'0 0.0
2015-Mar-28 15:24N 26°00' E 119°29'4 5.0
2015-Mar-28 14:33N 26°04' E 119°31'196 9.8
2015-Mar-27 18:33N 22°50' E 120°05'1313.4
2015-Mar-27 17:33N 22°38' E 120°11'8 8.5
2015-Mar-27 16:33N 22°34' E 120°19'0 0.1
2015-Mar-27 15:28N 22°34' E 120°19'0 0.0
2015-Mar-27 14:22N 22°34' E 120°19'0 0.0
2015-Mar-27 13:28N 22°34' E 120°19'0 0.0
2015-Mar-27 12:28N 22°34' E 120°19'0 0.0
2015-Mar-27 11:22N 22°34' E 120°19'0 0.0
2015-Mar-27 10:28N 22°34' E 120°19'0 0.0
2015-Mar-27 09:28N 22°34' E 120°19'1 1.5
2015-Mar-27 08:33N 22°33' E 120°18'2 2.2
2015-Mar-27 07:33N 22°32' E 120°15'1111.2
2015-Mar-27 06:33N 22°41' E 120°08'20612.1
2015-Mar-26 13:33N 26°05' E 119°32'5 4.7
2015-Mar-26 12:31N 26°00' E 119°29'0 0.0
2015-Mar-26 11:31N 26°00' E 119°29'0 0.0
2015-Mar-26 10:31N 26°00' E 119°29'0 0.0
2015-Mar-26 09:31N 26°00' E 119°29'0 0.0
2015-Mar-26 08:31N 26°00' E 119°29'0 0.0
2015-Mar-26 07:31N 26°00' E 119°29'0 0.0
2015-Mar-26 06:31N 26°00' E 119°29'0 0.0
2015-Mar-26 05:31N 26°00' E 119°29'0 0.0
2015-Mar-26 04:31N 26°00' E 119°29'0 0.0
2015-Mar-26 03:19N 26°00' E 119°29'0 0.0
2015-Mar-26 02:31N 26°00' E 119°29'3 2.8
2015-Mar-26 01:33N 26°03' E 119°30'68 6.0
2015-Mar-25 14:14N 24°56' E 119°16'710.1
2015-Mar-25 13:33N 24°51' E 119°10'1010.1
2015-Mar-25 12:33N 24°44' E 119°03'10 9.4
2015-Mar-25 11:33N 24°34' E 119°01'122 7.7
2015-Mar-24 19:33N 22°44' E 119°59'1111.4
2015-Mar-24 18:33N 22°36' E 120°07'1110.8
2015-Mar-24 17:33N 22°33' E 120°19'0 0.4
2015-Mar-24 16:33N 22°33' E 120°19'0 0.1
2015-Mar-24 15:29N 22°33' E 120°19'0 0.1
2015-Mar-24 14:29N 22°33' E 120°19'0 0.0
2015-Mar-24 13:29N 22°33' E 120°19'0 0.0
2015-Mar-24 12:29N 22°33' E 120°19'0 0.0
2015-Mar-24 11:29N 22°33' E 120°19'0 0.0
2015-Mar-24 10:29N 22°33' E 120°19'1 0.6
2015-Mar-24 09:31N 22°33' E 120°20'0 0.0
2015-Mar-23 21:27N 22°33' E 120°20'2 2.6
2015-Mar-23 20:30N 22°32' E 120°17'0 0.3
2015-Mar-23 19:29N 22°32' E 120°17'0 0.0
2015-Mar-23 18:17N 22°32' E 120°17'0 0.1
2015-Mar-23 17:29N 22°32' E 120°17'0 0.0
2015-Mar-23 16:23N 22°32' E 120°17'0 0.0
2015-Mar-23 15:29N 22°32' E 120°17'0 0.1
2015-Mar-23 14:29N 22°32' E 120°17'0 0.1
2015-Mar-23 13:29N 22°32' E 120°17'0 0.1
2015-Mar-23 12:29N 22°32' E 120°17'3 2.9
2015-Mar-23 11:33N 22°32' E 120°14'1212.1
2015-Mar-23 10:33N 22°43' E 120°08'20412.0
2015-Mar-22 17:33N 26°05' E 119°44'1010.1
2015-Mar-22 16:33N 26°07' E 119°33'8 7.7
2015-Mar-22 15:33N 26°00' E 119°29'0 0.2
2015-Mar-22 14:32N 26°00' E 119°29'0 0.0
2015-Mar-22 13:32N 26°00' E 119°29'0 0.0
2015-Mar-22 12:32N 26°00' E 119°29'0 0.0
2015-Mar-22 11:32N 26°00' E 119°29'0 0.0
2015-Mar-22 10:32N 26°00' E 119°29'0 0.0
2015-Mar-22 09:32N 26°00' E 119°29'0 0.0
2015-Mar-22 08:32N 26°00' E 119°29'0 0.0
2015-Mar-22 07:32N 26°00' E 119°29'0 0.0
2015-Mar-22 06:32N 26°00' E 119°29'0 0.0
2015-Mar-22 05:32N 26°00' E 119°29'0 0.0
2015-Mar-22 04:32N 26°00' E 119°29'0 0.0
2015-Mar-22 02:20N 26°00' E 119°29'0 0.0
2015-Mar-22 01:32N 26°00' E 119°29'5 5.5
2015-Mar-22 00:33N 26°05' E 119°32'52 3.9
2015-Mar-21 11:04N 25°13' E 119°41'0 0.1
2015-Mar-21 10:22N 25°13' E 119°41'  
Track history (hours):
 
Tides and Currents Weather Stations Pressure Air Temp Water Temp Dewpoint Dewpoint Depression Visibility Wind Speed Wind Dir Waves Ship Positions

Nagaleader

Last reported at 2015-Mar-31 00:33 UTC. Time now 2015-Mar-31 02:07 UTC.
Position N 22°53' E 120°04'.

Length 113 m; draft 5.9 m.

Type: Cargo ship. MMSI: 477926700.

Date/timePositionNaut miles runAvg speedWind from/ knotsBaromVisibWave heightAir tempDewpointWater temp
2015-Mar-31 00:33N 22°53' E 120°04'1414.1
2015-Mar-30 23:33N 22°40' E 120°10'1110.6
2015-Mar-30 22:32N 22°33' E 120°19'0 0.5
2015-Mar-30 21:32N 22°34' E 120°19'0 0.0
2015-Mar-30 20:32N 22°34' E 120°19'0 0.0
2015-Mar-30 19:32N 22°34' E 120°19'0 0.0
2015-Mar-30 18:32N 22°34' E 120°19'0 0.0
2015-Mar-30 17:26N 22°34' E 120°19'0 0.0
2015-Mar-30 16:32N 22°34' E 120°19'0 0.0
2015-Mar-30 15:32N 22°34' E 120°19'1 1.1
2015-Mar-30 14:33N 22°33' E 120°20'0 0.1
2015-Mar-30 13:27N 22°33' E 120°20'0 0.0
2015-Mar-30 12:33N 22°33' E 120°20'0 0.0
2015-Mar-30 11:33N 22°33' E 120°20'0 0.0
2015-Mar-30 10:33N 22°33' E 120°20'0 0.0
2015-Mar-30 08:33N 22°33' E 120°20'0 0.0
2015-Mar-30 06:25N 22°33' E 120°20'4 4.9
2015-Mar-30 05:34N 22°32' E 120°15'4 3.7
2015-Mar-30 04:33N 22°31' E 120°12'0 0.2
2015-Mar-30 03:34N 22°31' E 120°11'3 3.2
2015-Mar-30 02:34N 22°34' E 120°10'1211.9
2015-Mar-30 01:34N 22°45' E 120°07'8810.9
2015-Mar-29 17:28N 24°12' E 119°56'7412.2
2015-Mar-29 11:25N 25°26' E 119°59'2512.2
2015-Mar-29 09:23N 25°50' E 119°53'1512.0
2015-Mar-29 08:06N 26°05' E 119°48'15 9.5
2015-Mar-29 06:33N 26°04' E 119°31'5 4.6
2015-Mar-29 05:30N 26°00' E 119°29'0 0.0
2015-Mar-29 04:30N 26°00' E 119°29'0 0.0
2015-Mar-29 03:30N 26°00' E 119°29'0 0.0
2015-Mar-29 02:30N 26°00' E 119°29'0 0.0
2015-Mar-29 01:30N 26°00' E 119°29'0 0.0
2015-Mar-29 00:30N 26°00' E 119°29'0 0.0
2015-Mar-28 23:30N 26°00' E 119°29'0 0.0
2015-Mar-28 22:30N 26°00' E 119°29'0 0.0
2015-Mar-28 21:30N 26°00' E 119°29'0 0.0
2015-Mar-28 20:30N 26°00' E 119°29'0 0.0
2015-Mar-28 19:24N 26°00' E 119°29'0 0.0
2015-Mar-28 18:30N 26°00' E 119°29'0 0.0
2015-Mar-28 17:30N 26°00' E 119°29'0 0.0
2015-Mar-28 16:30N 26°00' E 119°29'0 0.0
2015-Mar-28 15:24N 26°00' E 119°29'4 5.0
2015-Mar-28 14:33N 26°04' E 119°31'196 9.8
2015-Mar-27 18:33N 22°50' E 120°05'1313.4
2015-Mar-27 17:33N 22°38' E 120°11'8 8.5
2015-Mar-27 16:33N 22°34' E 120°19'0 0.1
2015-Mar-27 15:28N 22°34' E 120°19'0 0.0
2015-Mar-27 14:22N 22°34' E 120°19'0 0.0
2015-Mar-27 13:28N 22°34' E 120°19'0 0.0
2015-Mar-27 12:28N 22°34' E 120°19'0 0.0
2015-Mar-27 11:22N 22°34' E 120°19'0 0.0
2015-Mar-27 10:28N 22°34' E 120°19'0 0.0
2015-Mar-27 09:28N 22°34' E 120°19'1 1.5
2015-Mar-27 08:33N 22°33' E 120°18'2 2.2
2015-Mar-27 07:33N 22°32' E 120°15'1111.2
2015-Mar-27 06:33N 22°41' E 120°08'20612.1
2015-Mar-26 13:33N 26°05' E 119°32'5 4.7
2015-Mar-26 12:31N 26°00' E 119°29'0 0.0
2015-Mar-26 11:31N 26°00' E 119°29'0 0.0
2015-Mar-26 10:31N 26°00' E 119°29'0 0.0
2015-Mar-26 09:31N 26°00' E 119°29'0 0.0
2015-Mar-26 08:31N 26°00' E 119°29'0 0.0
2015-Mar-26 07:31N 26°00' E 119°29'0 0.0
2015-Mar-26 06:31N 26°00' E 119°29'0 0.0
2015-Mar-26 05:31N 26°00' E 119°29'0 0.0
2015-Mar-26 04:31N 26°00' E 119°29'0 0.0
2015-Mar-26 03:19N 26°00' E 119°29'0 0.0
2015-Mar-26 02:31N 26°00' E 119°29'3 2.8
2015-Mar-26 01:33N 26°03' E 119°30'68 6.0
2015-Mar-25 14:14N 24°56' E 119°16'710.1
2015-Mar-25 13:33N 24°51' E 119°10'1010.1
2015-Mar-25 12:33N 24°44' E 119°03'10 9.4
2015-Mar-25 11:33N 24°34' E 119°01'122 7.7
2015-Mar-24 19:33N 22°44' E 119°59'1111.4
2015-Mar-24 18:33N 22°36' E 120°07'1110.8
2015-Mar-24 17:33N 22°33' E 120°19'0 0.4
2015-Mar-24 16:33N 22°33' E 120°19'0 0.1
2015-Mar-24 15:29N 22°33' E 120°19'0 0.1
2015-Mar-24 14:29N 22°33' E 120°19'0 0.0
2015-Mar-24 13:29N 22°33' E 120°19'0 0.0
2015-Mar-24 12:29N 22°33' E 120°19'0 0.0
2015-Mar-24 11:29N 22°33' E 120°19'0 0.0
2015-Mar-24 10:29N 22°33' E 120°19'1 0.6
2015-Mar-24 09:31N 22°33' E 120°20'0 0.0
2015-Mar-23 21:27N 22°33' E 120°20'2 2.6
2015-Mar-23 20:30N 22°32' E 120°17'0 0.3
2015-Mar-23 19:29N 22°32' E 120°17'0 0.0
2015-Mar-23 18:17N 22°32' E 120°17'0 0.1
2015-Mar-23 17:29N 22°32' E 120°17'0 0.0
2015-Mar-23 16:23N 22°32' E 120°17'0 0.0
2015-Mar-23 15:29N 22°32' E 120°17'0 0.1
2015-Mar-23 14:29N 22°32' E 120°17'0 0.1
2015-Mar-23 13:29N 22°32' E 120°17'0 0.1
2015-Mar-23 12:29N 22°32' E 120°17'3 2.9
2015-Mar-23 11:33N 22°32' E 120°14'1212.1
2015-Mar-23 10:33N 22°43' E 120°08'20412.0
2015-Mar-22 17:33N 26°05' E 119°44'1010.1
2015-Mar-22 16:33N 26°07' E 119°33'8 7.7
2015-Mar-22 15:33N 26°00' E 119°29'0 0.2
2015-Mar-22 14:32N 26°00' E 119°29'0 0.0
2015-Mar-22 13:32N 26°00' E 119°29'0 0.0
2015-Mar-22 12:32N 26°00' E 119°29'0 0.0
2015-Mar-22 11:32N 26°00' E 119°29'0 0.0
2015-Mar-22 10:32N 26°00' E 119°29'0 0.0
2015-Mar-22 09:32N 26°00' E 119°29'0 0.0
2015-Mar-22 08:32N 26°00' E 119°29'0 0.0
2015-Mar-22 07:32N 26°00' E 119°29'0 0.0
2015-Mar-22 06:32N 26°00' E 119°29'0 0.0
2015-Mar-22 05:32N 26°00' E 119°29'0 0.0
2015-Mar-22 04:32N 26°00' E 119°29'0 0.0
2015-Mar-22 02:20N 26°00' E 119°29'0 0.0
2015-Mar-22 01:32N 26°00' E 119°29'5 5.5
2015-Mar-22 00:33N 26°05' E 119°32'52 3.9
2015-Mar-21 11:04N 25°13' E 119°41'0 0.1
2015-Mar-21 10:22N 25°13' E 119°41'  

Dump ship's entire track history